Time;durP1;ratioP1;P1;durP2;ratioP2;P2;SDS_P1;SDS_P2;PMS_P1;PMS_P2;Temp;Humidity;BMP_temperature;BMP_pressure;BME280_temperature;BME280_humidity;BME280_pressure;Samples;Min_cycle;Max_cycle;Signal;HPM_P1;HPM_P2
2021/03/08 00:00:41;;;;;;;50.47;26.63;;;;;;;7.34;51.99;102552.88;5052998;28;20476;-82
2021/03/08 00:03:10;;;;;;;53.28;27.30;;;;;;;7.35;51.83;102555.56;5047302;28;20109;-81
2021/03/08 00:05:36;;;;;;;53.25;29.10;;;;;;;7.33;51.91;102545.81;5046952;28;20132;-81
2021/03/08 00:08:04;;;;;;;51.38;27.30;;;;;;;7.34;52.05;102543.25;5043219;28;20574;-82
2021/03/08 00:10:30;;;;;;;58.08;30.35;;;;;;;7.32;52.34;102539.66;5047004;28;20025;-82
2021/03/08 00:12:57;;;;;;;49.33;25.60;;;;;;;7.29;52.12;102545.78;5045463;28;20028;-81
2021/03/08 00:15:23;;;;;;;54.33;29.05;;;;;;;7.33;52.11;102545.81;5042442;28;20032;-82
2021/03/08 00:17:51;;;;;;;51.88;27.83;;;;;;;7.35;52.20;102549.38;5043645;28;20029;-82
2021/03/08 00:20:20;;;;;;;53.35;28.92;;;;;;;7.35;52.11;102542.38;5047046;28;20162;-82
2021/03/08 00:22:47;;;;;;;52.83;27.30;;;;;;;7.30;52.39;102536.09;5045989;28;20116;-83
2021/03/08 00:25:16;;;;;;;52.40;29.17;;;;;;;7.32;52.65;102539.66;5048128;28;20025;-83
2021/03/08 00:27:43;;;;;;;55.40;29.88;;;;;;;7.30;52.29;102541.38;5046345;28;20034;-83
2021/03/08 00:30:12;;;;;;;58.20;29.88;;;;;;;7.36;52.65;102543.25;5045661;28;20036;-84
2021/03/08 00:32:39;;;;;;;49.03;27.80;;;;;;;7.30;52.79;102536.09;5046026;28;20025;-83
2021/03/08 00:35:07;;;;;;;56.15;29.85;;;;;;;7.29;52.59;102526.44;5050244;28;20051;-83
2021/03/08 00:37:34;;;;;;;54.53;28.08;;;;;;;7.29;52.71;102529.94;5044866;28;20067;-84
2021/03/08 00:40:05;;;;;;;55.83;29.92;;;;;;;7.25;52.83;102527.22;5047933;28;20029;-84
2021/03/08 00:42:33;;;;;;;52.00;29.70;;;;;;;7.23;52.89;102523.69;5047968;28;20036;-83
2021/03/08 00:45:00;;;;;;;54.90;29.88;;;;;;;7.21;52.95;102518.34;5046158;28;20023;-83
2021/03/08 00:47:26;;;;;;;55.60;30.50;;;;;;;7.21;52.99;102518.34;5044160;28;20434;-83
2021/03/08 00:49:54;;;;;;;56.47;29.58;;;;;;;7.23;52.83;102518.41;5051114;28;20491;-83
2021/03/08 00:52:20;;;;;;;56.28;29.15;;;;;;;7.25;53.18;102516.66;5048468;28;20056;-84
2021/03/08 00:54:47;;;;;;;57.85;29.58;;;;;;;7.27;52.80;102520.22;5046411;28;20022;-84
2021/03/08 00:57:13;;;;;;;51.28;27.88;;;;;;;7.29;52.94;102518.53;5045019;28;20041;-83
2021/03/08 00:59:40;;;;;;;49.80;27.80;;;;;;;7.33;52.78;102517.72;5041223;28;20045;-83
2021/03/08 01:02:07;;;;;;;58.65;30.98;;;;;;;7.33;52.88;102523.00;5047040;28;20087;-84
2021/03/08 01:04:33;;;;;;;58.88;30.00;;;;;;;7.36;52.81;102520.41;5046595;28;20105;-83
2021/03/08 01:07:00;;;;;;;109.68;64.07;;;;;;;7.34;52.42;102522.16;5047290;28;20040;-83
2021/03/08 01:09:27;;;;;;;63.05;32.67;;;;;;;7.36;52.84;102523.03;5045920;28;20508;-83
2021/03/08 01:11:55;;;;;;;80.13;38.58;;;;;;;7.45;52.33;102515.34;5044031;28;20025;-84
2021/03/08 01:14:22;;;;;;;60.72;31.73;;;;;;;7.45;52.39;102517.06;5044019;28;20037;-82
2021/03/08 01:16:54;;;;;;;762.75;349.65;;;;;;;7.45;52.47;102517.06;5042206;28;20026;-82
2021/03/08 01:19:21;;;;;;;515.30;227.45;;;;;;;7.43;52.63;102513.53;5043231;28;20033;-82
2021/03/08 01:21:47;;;;;;;294.45;124.53;;;;;;;7.39;52.45;102515.22;5046468;28;20893;-83
2021/03/08 01:24:14;;;;;;;154.63;69.72;;;;;;;7.37;52.66;102511.66;5046532;28;20049;-81
2021/03/08 01:26:41;;;;;;;83.72;41.25;;;;;;;7.25;53.01;102514.03;5046486;28;20101;-81
2021/03/08 01:29:07;;;;;;;77.78;38.08;;;;;;;7.22;53.07;102511.34;5043649;28;20032;-81
2021/03/08 01:31:34;;;;;;;69.35;33.85;;;;;;;7.26;53.04;102516.72;5040192;28;20069;-82
2021/03/08 01:34:00;;;;;;;61.70;29.75;;;;;;;7.23;53.10;102513.13;5041309;28;20040;-82
2021/03/08 01:36:26;;;;;;;57.83;28.73;;;;;;;7.20;53.20;102507.78;5045467;28;20029;-82
2021/03/08 01:38:53;;;;;;;53.97;28.25;;;;;;;7.19;52.95;102508.63;5042479;28;20063;-82
2021/03/08 01:41:20;;;;;;;54.03;27.80;;;;;;;7.22;52.89;102511.34;5043439;28;20028;-82
2021/03/08 01:43:47;;;;;;;51.28;27.58;;;;;;;7.21;52.96;102510.44;5042386;28;20029;-82
2021/03/08 01:46:14;;;;;;;50.28;29.15;;;;;;;7.13;53.00;102512.91;5044077;28;20033;-81
2021/03/08 01:48:41;;;;;;;49.00;27.27;;;;;;;7.15;52.93;102501.53;5044456;28;20391;-82
2021/03/08 01:51:08;;;;;;;43.42;23.73;;;;;;;7.12;52.92;102500.59;5045420;28;20380;-82
2021/03/08 01:53:36;;;;;;;50.65;27.45;;;;;;;7.12;52.91;102507.63;5044242;28;20431;-83
2021/03/08 01:56:04;;;;;;;55.53;27.98;;;;;;;7.14;53.05;102498.00;5051061;28;20454;-85
2021/03/08 01:58:32;;;;;;;49.22;27.75;;;;;;;7.17;52.74;102500.69;5046516;28;20037;-83
2021/03/08 02:01:00;;;;;;;49.00;27.10;;;;;;;7.20;52.51;102497.22;5048502;28;20020;-84
2021/03/08 02:03:27;;;;;;;49.75;27.17;;;;;;;7.04;53.06;102483.75;5042588;28;20029;-82
2021/03/08 02:05:53;;;;;;;51.35;27.10;;;;;;;7.06;52.69;102489.91;5042189;28;20080;-82
2021/03/08 02:08:22;;;;;;;52.95;27.20;;;;;;;7.15;52.67;102489.22;5045490;28;20494;-82
2021/03/08 02:10:50;;;;;;;49.90;26.45;;;;;;;7.10;52.63;102483.88;5048249;28;20452;-83
2021/03/08 02:13:42;;;;;;;50.72;26.42;;;;;;;7.17;52.67;102474.34;5044810;28;20380;-82
2021/03/08 02:16:38;;;;;;;45.95;25.63;;;;;;;7.23;52.43;102481.50;5045186;28;20033;-83
2021/03/08 02:22:22;;;;;;;46.90;26.58;;;;;;;7.22;52.36;102469.16;4935441;27;4008428;-83
2021/03/08 02:28:00;;;;;;;54.83;25.95;;;;;;;7.29;52.13;102468.44;5060038;28;20438;-83
2021/03/08 02:30:39;;;;;;;50.00;25.70;;;;;;;7.17;52.53;102455.88;5058219;28;20033;-82
2021/03/08 02:33:08;;;;;;;49.42;25.65;;;;;;;7.24;52.28;102464.78;5060326;28;20091;-83
2021/03/08 02:35:41;;;;;;;45.65;23.85;;;;;;;7.24;52.21;102465.69;5061254;28;20037;-82
2021/03/08 02:38:15;;;;;;;49.60;24.73;;;;;;;7.27;51.99;102460.47;5056172;28;20067;-84
2021/03/08 02:40:48;;;;;;;50.97;26.17;;;;;;;7.24;51.89;102460.44;5058419;28;20037;-84
2021/03/08 02:43:29;;;;;;;44.33;24.33;;;;;;;7.35;52.05;102460.66;5054508;28;20083;-83
2021/03/08 02:46:00;;;;;;;44.30;23.83;;;;;;;7.28;52.06;102458.75;5058099;28;20040;-83
2021/03/08 02:48:35;;;;;;;42.40;24.73;;;;;;;7.31;51.81;102456.16;5057677;28;20037;-83
2021/03/08 02:51:05;;;;;;;40.75;24.02;;;;;;;7.29;51.92;102461.41;5057718;28;20373;-82
2021/03/08 02:53:35;;;;;;;43.40;23.88;;;;;;;7.21;52.04;102451.56;5057714;28;20095;-82
2021/03/08 02:56:08;;;;;;;46.45;24.77;;;;;;;7.24;52.03;102451.59;5055211;28;20028;-83
2021/03/08 02:58:38;;;;;;;42.13;22.75;;;;;;;7.28;51.87;102450.81;5058545;28;20040;-82
2021/03/08 03:01:06;;;;;;;42.13;23.45;;;;;;;7.17;52.16;102452.38;5060865;28;20020;-83
2021/03/08 03:03:37;;;;;;;42.92;23.83;;;;;;;7.17;52.30;102447.09;5058662;28;20030;-83
2021/03/08 03:06:05;;;;;;;40.85;23.45;;;;;;;7.22;51.64;102448.94;5058651;28;20033;-83
2021/03/08 03:08:32;;;;;;;41.35;22.38;;;;;;;7.30;51.84;102451.72;5060299;28;20044;-83
2021/03/08 03:11:00;;;;;;;45.80;24.33;;;;;;;7.27;52.04;102456.97;5060441;28;20097;-83
2021/03/08 03:13:28;;;;;;;44.15;23.52;;;;;;;7.25;52.07;102448.13;5058616;28;20485;-83
2021/03/08 03:15:57;;;;;;;44.30;24.52;;;;;;;7.29;51.91;102439.44;5060186;28;20376;-83
2021/03/08 03:18:28;;;;;;;40.45;22.70;;;;;;;7.21;52.17;102447.16;5060638;28;20476;-83
2021/03/08 03:20:56;;;;;;;41.17;24.58;;;;;;;7.18;52.27;102448.84;5053844;28;20020;-83
2021/03/08 03:23:25;;;;;;;43.90;23.00;;;;;;;7.18;51.88;102443.56;5052834;28;20036;-82
2021/03/08 03:25:53;;;;;;;47.83;24.52;;;;;;;7.26;51.84;102444.63;5056328;28;20387;-82
2021/03/08 03:28:22;;;;;;;46.90;24.67;;;;;;;7.28;51.69;102445.56;5059565;28;20036;-82
2021/03/08 03:30:49;;;;;;;42.22;22.58;;;;;;;7.27;51.73;102441.13;5056076;28;20151;-82
2021/03/08 03:33:17;;;;;;;43.58;23.25;;;;;;;7.27;51.65;102443.78;5059061;28;20024;-82
2021/03/08 03:35:44;;;;;;;43.30;23.63;;;;;;;7.17;51.95;102445.34;5057211;28;20057;-84
2021/03/08 03:38:13;;;;;;;42.90;23.80;;;;;;;7.30;51.56;102441.19;5042810;28;20048;-83
2021/03/08 03:40:40;;;;;;;46.42;24.48;;;;;;;7.34;51.31;102436.84;5046549;28;20028;-82
2021/03/08 03:43:06;;;;;;;42.83;23.88;;;;;;;7.27;51.51;102436.75;5046760;28;20075;-83
2021/03/08 03:45:33;;;;;;;45.38;24.25;;;;;;;7.29;51.49;102439.44;5044211;28;20488;-82
2021/03/08 03:48:03;;;;;;;44.97;24.42;;;;;;;7.28;51.48;102438.53;5043392;28;20021;-82
2021/03/08 03:50:29;;;;;;;47.10;24.13;;;;;;;7.32;51.43;102444.75;5043392;28;20021;-82
2021/03/08 03:52:56;;;;;;;47.83;25.10;;;;;;;7.36;51.47;102445.69;5046286;28;20017;-82
2021/03/08 03:55:25;;;;;;;44.13;23.08;;;;;;;7.35;51.34;102447.47;5045153;28;20112;-82
2021/03/08 03:58:22;;;;;;;49.42;23.70;;;;;;;7.37;51.32;102444.84;5043108;28;20085;-82
2021/03/08 04:04:00;;;;;;;41.05;24.25;;;;;;;7.42;51.44;102451.09;5081517;27;20843;-83
2021/03/08 04:06:33;;;;;;;43.97;24.42;;;;;;;7.28;51.69;102453.47;5070879;28;20059;-83
2021/03/08 04:09:01;;;;;;;45.38;24.42;;;;;;;7.27;51.71;102457.84;5061991;28;20076;-83
2021/03/08 04:11:32;;;;;;;43.90;24.70;;;;;;;7.34;51.69;102458.84;5060186;28;20041;-85
2021/03/08 04:14:02;;;;;;;51.10;26.20;;;;;;;7.36;51.52;102462.41;5059165;28;20053;-83
2021/03/08 04:16:31;;;;;;;45.53;24.20;;;;;;;7.34;51.54;102457.94;5061782;28;20083;-84
2021/03/08 04:19:01;;;;;;;45.30;23.67;;;;;;;7.41;51.49;102463.41;5061147;28;20039;-85
2021/03/08 04:21:30;;;;;;;44.03;23.17;;;;;;;7.39;51.43;102473.03;5057117;28;20041;-83
2021/03/08 04:23:57;;;;;;;46.90;24.50;;;;;;;7.36;51.57;102475.56;5063163;28;20033;-83
2021/03/08 04:26:25;;;;;;;44.38;24.30;;;;;;;7.33;51.91;102475.53;5059726;28;20465;-83
2021/03/08 04:28:51;;;;;;;42.33;23.70;;;;;;;7.33;51.78;102477.25;5060550;28;20468;-82
2021/03/08 04:31:18;;;;;;;45.92;25.73;;;;;;;7.24;52.08;102476.25;5061975;28;20057;-82
2021/03/08 04:33:47;;;;;;;50.75;24.65;;;;;;;7.25;52.09;102477.13;5061890;28;20026;-83
2021/03/08 04:36:15;;;;;;;47.83;25.38;;;;;;;7.25;52.04;102469.22;5060614;28;20029;-83
2021/03/08 04:38:43;;;;;;;39.90;23.23;;;;;;;7.29;52.22;102471.06;5059323;28;20017;-82
2021/03/08 04:41:11;;;;;;;50.15;25.30;;;;;;;7.30;52.17;102467.53;5060961;28;20025;-83
2021/03/08 04:43:39;;;;;;;41.40;23.85;;;;;;;7.27;52.10;102473.66;5060711;28;20056;-83
2021/03/08 04:46:06;;;;;;;46.42;25.15;;;;;;;7.30;51.94;102472.81;5058963;28;20029;-82
2021/03/08 04:48:35;;;;;;;46.15;25.08;;;;;;;7.32;51.95;102471.13;5060285;28;20472;-82
2021/03/08 04:51:06;;;;;;;51.55;25.23;;;;;;;7.35;51.96;102471.19;5060994;28;20036;-82
2021/03/08 04:53:33;;;;;;;45.70;25.33;;;;;;;7.32;52.08;102470.25;5060453;28;20029;-82
2021/03/08 04:56:02;;;;;;;46.75;25.38;;;;;;;7.35;51.89;102475.56;5059573;28;20039;-82
2021/03/08 04:58:31;;;;;;;46.08;24.23;;;;;;;7.35;52.01;102465.91;5060241;28;20020;-83
2021/03/08 05:00:58;;;;;;;46.42;24.48;;;;;;;7.37;51.85;102469.44;5060389;28;20029;-83
2021/03/08 05:03:26;;;;;;;47.35;23.85;;;;;;;7.36;52.00;102469.44;5056048;28;20056;-84
2021/03/08 05:05:56;;;;;;;49.15;25.15;;;;;;;7.41;51.80;102473.94;5062432;28;20028;-83
2021/03/08 05:08:25;;;;;;;41.78;23.17;;;;;;;7.38;51.66;102467.72;5060174;28;20456;-83
2021/03/08 05:10:54;;;;;;;47.53;25.63;;;;;;;7.36;51.85;102465.03;5059511;28;20567;-82
2021/03/08 05:13:22;;;;;;;45.75;24.02;;;;;;;7.37;51.76;102458.91;5055220;28;20578;-82
2021/03/08 05:15:51;;;;;;;45.58;25.50;;;;;;;7.35;51.71;102470.28;5052217;28;20460;-82
2021/03/08 05:18:21;;;;;;;47.35;25.20;;;;;;;7.40;51.57;102468.63;5046488;28;20025;-82
2021/03/08 05:20:49;;;;;;;43.00;25.33;;;;;;;7.41;51.61;102463.41;5045024;28;20025;-82
2021/03/08 05:23:16;;;;;;;50.72;27.35;;;;;;;7.38;51.59;102465.97;5042396;28;20396;-82
2021/03/08 05:25:43;;;;;;;49.92;25.58;;;;;;;7.41;51.75;102462.50;5051562;28;20050;-83
2021/03/08 05:28:10;;;;;;;49.97;26.15;;;;;;;7.33;51.73;102462.34;5047605;28;20119;-82
2021/03/08 05:30:39;;;;;;;52.42;26.85;;;;;;;7.37;51.75;102461.53;5051179;28;20029;-83
2021/03/08 05:33:17;;;;;;;51.10;26.25;;;;;;;7.32;51.84;102462.31;5049393;28;20461;-83
2021/03/08 05:35:47;;;;;;;48.75;25.45;;;;;;;7.35;51.58;102459.72;5053632;28;20029;-82
2021/03/08 05:38:15;;;;;;;46.25;24.08;;;;;;;7.37;51.62;102466.81;5049337;28;20541;-82
2021/03/08 05:40:47;;;;;;;45.38;23.90;;;;;;;7.43;51.50;102463.41;5043230;28;20444;-83
2021/03/08 05:43:16;;;;;;;48.17;26.02;;;;;;;7.48;51.38;102471.41;5047397;28;20479;-83
2021/03/08 05:46:03;;;;;;;46.70;26.27;;;;;;;7.41;51.79;102471.31;5050753;28;20091;-83
2021/03/08 05:57:25;;;;;;;59.53;28.58;;;;;;;7.48;51.43;102472.31;5106804;27;20371;-83
2021/03/08 06:05:51;;;;;;;45.85;25.58;;;;;;;7.16;52.26;102475.19;5080349;27;20469;-82
2021/03/08 06:11:07;;;;;;;54.42;27.02;;;;;;;7.16;52.50;102471.66;5104130;27;20381;-82
2021/03/08 06:13:45;;;;;;;47.55;26.00;;;;;;;7.17;52.61;102478.72;5103013;28;20036;-82
2021/03/08 06:16:18;;;;;;;47.83;25.58;;;;;;;7.21;52.37;102478.81;5107038;28;20028;-83
2021/03/08 06:18:47;;;;;;;47.53;26.65;;;;;;;7.18;52.49;102478.75;5100910;28;20073;-83
2021/03/08 06:21:15;;;;;;;48.90;26.08;;;;;;;7.18;52.74;102481.38;5098217;28;20028;-84
2021/03/08 06:23:43;;;;;;;44.17;25.17;;;;;;;7.18;52.60;102484.03;5100770;28;20060;-82
2021/03/08 06:26:14;;;;;;;50.15;27.45;;;;;;;7.28;52.65;102496.53;5098695;28;20443;-83
2021/03/08 06:28:41;;;;;;;50.25;25.45;;;;;;;7.23;52.79;102489.41;5096761;28;20054;-83
2021/03/08 06:31:08;;;;;;;51.50;26.63;;;;;;;7.29;52.44;102489.53;5098526;28;20031;-83
2021/03/08 06:33:37;;;;;;;50.95;27.40;;;;;;;7.28;52.50;102496.53;5097372;28;20027;-83
2021/03/08 06:36:05;;;;;;;48.90;26.88;;;;;;;7.28;52.73;102495.66;5097351;28;20035;-83
2021/03/08 06:38:32;;;;;;;47.47;25.83;;;;;;;7.31;52.76;102498.34;5094954;28;20040;-82
2021/03/08 06:41:00;;;;;;;45.22;24.58;;;;;;;7.31;52.87;102503.59;5096219;28;20087;-82
2021/03/08 06:43:28;;;;;;;48.47;25.08;;;;;;;7.37;52.88;102506.38;5099819;28;20036;-83
2021/03/08 06:45:55;;;;;;;48.33;25.38;;;;;;;7.32;53.01;102494.84;5097525;28;20064;-82
2021/03/08 06:48:22;;;;;;;45.30;25.27;;;;;;;7.35;52.89;102497.56;5093402;28;20066;-82
2021/03/08 06:51:07;;;;;;;61.47;28.38;;;;;;;7.39;52.89;102499.38;5100123;28;20666;-82
2021/03/08 06:53:34;;;;;;;50.55;25.55;;;;;;;7.37;52.92;102489.66;5096880;28;20059;-82
2021/03/08 06:56:21;;;;;;;51.45;25.58;;;;;;;7.47;53.10;102496.91;5100283;28;20035;-83
2021/03/08 07:01:45;;;;;;;49.10;26.30;;;;;;;7.47;52.76;102517.13;5064181;27;20427;-83
2021/03/08 07:04:16;;;;;;;48.40;26.02;;;;;;;7.46;52.94;102505.66;5057551;28;20033;-82
2021/03/08 07:06:59;;;;;;;50.67;26.42;;;;;;;7.43;53.17;102509.13;5039138;28;20073;-83
2021/03/08 07:09:27;;;;;;;;;;;;;;;7.63;52.32;102508.63;5009651;28;20053;-83
2021/03/08 07:12:10;;;;;;;47.45;24.95;;;;;;;7.50;52.88;102503.97;5018960;28;20064;-83
2021/03/08 07:14:40;;;;;;;54.70;25.63;;;;;;;7.58;52.77;102503.25;5031194;28;20496;-84
2021/03/08 07:17:41;;;;;;;50.10;26.60;;;;;;;7.65;52.61;102509.56;5031150;28;20021;-83
2021/03/08 07:20:10;;;;;;;44.53;24.08;;;;;;;7.67;52.64;102513.09;5028765;28;20425;-84
2021/03/08 07:22:43;;;;;;;46.83;24.45;;;;;;;7.65;52.84;102512.19;5030741;28;20121;-83
2021/03/08 07:28:00;;;;;;;48.97;26.58;;;;;;;7.75;52.87;102513.25;5063677;27;20407;-82
2021/03/08 07:30:38;;;;;;;48.35;24.58;;;;;;;7.89;52.47;102508.25;5055817;28;20472;-82
2021/03/08 07:33:09;;;;;;;48.63;24.73;;;;;;;8.04;51.85;102516.41;5053271;28;20091;-82
2021/03/08 07:38:39;;;;;;;46.17;25.52;;;;;;;8.43;51.52;102515.28;5094958;27;20376;-83
2021/03/08 07:44:11;;;;;;;40.42;23.17;;;;;;;8.43;51.64;102525.84;5058086;28;20443;-84
2021/03/08 07:46:38;;;;;;;47.17;22.75;;;;;;;8.39;51.19;102525.78;5053208;28;20025;-82
2021/03/08 07:49:07;;;;;;;44.40;22.55;;;;;;;8.46;51.40;102529.41;5038430;28;20391;-83
2021/03/08 07:51:34;;;;;;;42.03;23.00;;;;;;;8.48;51.42;102527.72;5035482;28;20388;-83
2021/03/08 07:56:42;;;;;;;45.13;23.20;;;;;;;8.57;50.69;102530.50;5058027;27;20498;-83
2021/03/08 07:59:09;;;;;;;39.80;23.10;;;;;;;8.58;50.67;102535.84;5056435;28;20441;-83
2021/03/08 08:01:35;;;;;;;40.20;22.08;;;;;;;8.70;50.45;102535.13;5058038;28;20044;-83
2021/03/08 08:04:02;;;;;;;43.53;22.52;;;;;;;8.67;50.96;102528.91;5060438;28;20056;-84
2021/03/08 08:06:29;;;;;;;43.88;21.98;;;;;;;8.64;51.07;102535.03;5056928;28;20400;-83
2021/03/08 08:08:56;;;;;;;43.17;22.98;;;;;;;8.74;50.48;102529.00;5054896;28;20025;-83
2021/03/08 08:11:27;;;;;;;42.28;21.33;;;;;;;8.70;50.68;102531.59;5052986;28;20397;-83
2021/03/08 08:14:02;;;;;;;43.25;24.27;;;;;;;8.87;50.85;102531.81;5054467;28;20036;-83
2021/03/08 08:16:31;;;;;;;42.92;22.63;;;;;;;8.95;50.72;102535.47;5056824;28;20380;-88
2021/03/08 08:19:03;;;;;;;42.75;23.02;;;;;;;8.90;50.21;102534.53;5055843;28;20467;-84
2021/03/08 08:21:35;;;;;;;42.58;21.17;;;;;;;9.00;50.44;102539.06;5056191;28;20083;-84
2021/03/08 08:24:04;;;;;;;38.78;22.40;;;;;;;8.98;50.51;102535.50;5055846;28;20029;-83
2021/03/08 08:26:31;;;;;;;41.33;22.77;;;;;;;9.10;50.19;102532.16;5051123;28;20112;-82
2021/03/08 08:28:58;;;;;;;43.33;23.38;;;;;;;9.17;49.92;102535.75;5055480;28;20021;-82
2021/03/08 08:31:25;;;;;;;41.22;22.48;;;;;;;9.30;50.39;102536.81;5059821;28;20481;-83
2021/03/08 08:33:52;;;;;;;41.38;22.95;;;;;;;9.32;49.88;102538.63;5061228;28;20064;-83
2021/03/08 08:36:26;;;;;;;40.65;23.30;;;;;;;9.38;49.55;102541.34;5058046;28;20032;-82
2021/03/08 08:41:38;;;;;;;40.85;22.15;;;;;;;9.35;50.00;102529.81;5108217;27;20441;-82
2021/03/08 08:49:59;;;;;;;39.17;21.65;;;;;;;9.32;50.11;102538.63;5073963;27;20404;-82
2021/03/08 09:03:57;;;;;;;41.33;21.17;;;;;;;9.20;49.75;102538.44;5057140;28;20798;-83
2021/03/08 09:06:44;;;;;;;39.65;22.13;;;;;;;9.26;50.29;102527.97;5046659;28;20111;-83
2021/03/08 09:09:14;;;;;;;42.28;21.75;;;;;;;9.21;50.14;102532.31;5029273;28;20029;-83
2021/03/08 09:12:02;;;;;;;39.83;21.77;;;;;;;9.21;50.26;102537.59;5026961;28;20049;-83
2021/03/08 09:17:17;;;;;;;41.65;22.35;;;;;;;9.15;50.05;102527.81;5116881;27;20418;-83
2021/03/08 09:19:47;;;;;;;37.20;20.42;;;;;;;9.17;49.73;102528.72;5105707;28;20040;-83
2021/03/08 09:28:09;;;;;;;44.58;23.30;;;;;;;9.37;49.58;102521.03;5053313;28;20457;-82
2021/03/08 09:30:39;;;;;;;39.95;21.10;;;;;;;9.54;49.76;102520.34;5049132;28;20029;-82
2021/03/08 09:33:08;;;;;;;39.95;22.05;;;;;;;9.67;49.52;102522.25;5040220;28;20091;-84
2021/03/08 09:35:55;;;;;;;39.88;22.88;;;;;;;9.79;49.06;102520.59;5044762;28;20037;-84
2021/03/08 09:38:23;;;;;;;40.53;21.88;;;;;;;9.90;48.99;102518.94;5037729;28;20018;-82
2021/03/08 09:40:59;;;;;;;39.42;19.48;;;;;;;10.09;48.73;102516.47;5038543;28;20041;-82
2021/03/08 09:46:16;;;;;;;39.85;22.25;;;;;;;10.25;48.57;102512.19;5073547;28;20409;-83
2021/03/08 09:48:50;;;;;;;34.45;19.73;;;;;;;10.32;47.93;102512.25;5041396;28;20033;-83
2021/03/08 09:51:18;;;;;;;38.63;19.15;;;;;;;10.36;47.96;102510.56;5046313;28;20440;-80
2021/03/08 09:53:46;;;;;;;37.90;21.52;;;;;;;10.42;47.45;102512.34;5050432;28;20108;-81
2021/03/08 09:56:15;;;;;;;35.45;18.33;;;;;;;10.56;47.16;102509.81;5046825;28;20033;-83
2021/03/08 09:58:42;;;;;;;36.50;18.92;;;;;;;10.55;46.74;102503.63;5049410;28;20064;-83
2021/03/08 10:01:15;;;;;;;36.45;18.77;;;;;;;10.75;46.80;102503.72;5045486;28;20395;-82
2021/03/08 10:03:42;;;;;;;38.60;20.38;;;;;;;10.78;46.80;102506.41;5043511;28;20120;-81
2021/03/08 10:06:24;;;;;;;35.80;19.40;;;;;;;10.89;45.66;102498.53;5047618;28;20033;-83
2021/03/08 10:08:51;;;;;;;35.15;19.35;;;;;;;10.79;45.97;102508.19;5048600;28;20025;-84
2021/03/08 10:11:27;;;;;;;35.55;18.52;;;;;;;11.02;45.07;102499.47;5041813;28;20040;-82
2021/03/08 10:13:54;;;;;;;28.98;16.33;;;;;;;11.19;44.90;102507.50;5045816;28;20037;-83
2021/03/08 10:16:28;;;;;;;36.28;19.13;;;;;;;11.19;44.92;102506.59;5042469;28;20484;-83
2021/03/08 10:18:54;;;;;;;38.23;19.17;;;;;;;11.36;44.78;102493.41;5045773;28;20017;-83
2021/03/08 10:21:21;;;;;;;34.05;17.85;;;;;;;11.56;44.31;102496.13;5042796;28;20044;-84
2021/03/08 10:23:48;;;;;;;33.97;18.13;;;;;;;11.67;44.39;102494.38;5038500;28;20586;-84
2021/03/08 10:26:19;;;;;;;39.22;18.85;;;;;;;11.89;44.00;102491.78;5047083;28;20044;-83
2021/03/08 10:28:49;;;;;;;32.90;19.45;;;;;;;11.88;43.23;102488.22;5045123;28;20488;-84
2021/03/08 10:31:25;;;;;;;31.10;18.13;;;;;;;11.97;42.71;102492.69;5043637;28;20037;-85
2021/03/08 10:34:09;;;;;;;28.33;17.92;;;;;;;11.93;42.28;102483.78;5046010;28;20151;-83
2021/03/08 10:36:38;;;;;;;34.90;18.50;;;;;;;11.93;42.89;102491.75;5043824;28;20120;-87
2021/03/08 10:39:08;;;;;;;29.67;16.50;;;;;;;12.03;42.50;102489.16;5046236;28;20461;-88
2021/03/08 10:41:37;;;;;;;43.33;19.48;;;;;;;12.00;42.74;102497.09;5042542;28;20056;-82
2021/03/08 10:44:07;;;;;;;33.53;17.67;;;;;;;12.05;42.04;102490.00;5043246;28;20057;-84
2021/03/08 10:47:06;;;;;;;32.53;17.98;;;;;;;11.96;42.78;102491.81;5042505;28;20037;-86
2021/03/08 10:49:48;;;;;;;30.10;16.63;;;;;;;12.17;41.89;102484.69;5039861;28;20376;-82
2021/03/08 10:52:22;;;;;;;30.73;16.30;;;;;;;12.19;41.82;102492.69;5041742;28;20026;-85
2021/03/08 10:54:48;;;;;;;32.47;17.80;;;;;;;12.20;41.34;102483.81;5044386;28;20040;-85
2021/03/08 10:57:15;;;;;;;31.23;17.90;;;;;;;12.25;41.71;102480.28;5034891;28;20034;-88
2021/03/08 10:59:48;;;;;;;31.15;17.10;;;;;;;12.30;41.93;102490.91;5034964;28;20495;-85
2021/03/08 11:02:16;;;;;;;28.70;17.27;;;;;;;12.33;41.47;102495.34;5035206;28;20017;-81
2021/03/08 11:04:48;;;;;;;27.35;16.73;;;;;;;12.49;40.74;102480.25;5034945;28;20044;-85
2021/03/08 11:07:15;;;;;;;29.20;16.65;;;;;;;12.50;41.32;102480.25;5034540;28;20480;-85
2021/03/08 11:09:49;;;;;;;30.90;16.92;;;;;;;12.50;40.84;102477.59;5034658;28;20037;-85
2021/03/08 11:12:19;;;;;;;22.88;14.10;;;;;;;12.62;40.61;102477.56;5035073;28;20025;-84
2021/03/08 11:14:48;;;;;;;25.98;14.50;;;;;;;12.70;40.19;102474.00;5033273;28;20117;-85
2021/03/08 11:17:14;;;;;;;22.65;14.00;;;;;;;12.82;40.06;102478.41;5026963;28;20029;-84
2021/03/08 11:19:40;;;;;;;26.77;14.48;;;;;;;12.83;40.50;102481.03;5030952;28;20068;-85
2021/03/08 11:22:10;;;;;;;25.20;15.25;;;;;;;12.88;39.94;102489.88;5032663;28;20021;-83
2021/03/08 11:27:27;;;;;;;23.73;14.27;;;;;;;12.71;39.48;102481.06;5054391;28;20454;-83
2021/03/08 11:30:03;;;;;;;25.90;15.65;;;;;;;12.96;39.25;102481.91;5043364;28;20480;-82
2021/03/08 11:32:31;;;;;;;23.50;14.27;;;;;;;13.02;38.47;102480.97;5036309;28;20033;-82
2021/03/08 11:34:58;;;;;;;21.65;13.45;;;;;;;13.19;38.03;102472.94;5041925;28;20021;-82
2021/03/08 11:37:28;;;;;;;23.63;12.52;;;;;;;13.24;37.65;102471.13;5041196;28;20075;-84
2021/03/08 11:39:58;;;;;;;22.08;13.15;;;;;;;13.14;37.16;102472.94;5050556;28;20467;-83
2021/03/08 11:42:28;;;;;;;25.33;13.55;;;;;;;13.19;36.67;102468.47;5052901;28;20033;-82
2021/03/08 11:44:58;;;;;;;21.27;13.52;;;;;;;13.33;36.86;102472.84;5052038;28;20022;-83
2021/03/08 11:47:28;;;;;;;22.83;13.57;;;;;;;13.43;37.00;102462.19;5051192;28;20079;-83
2021/03/08 11:49:57;;;;;;;24.25;12.70;;;;;;;13.71;37.24;102450.47;5056089;28;20036;-84
2021/03/08 11:52:23;;;;;;;21.77;13.30;;;;;;;13.86;36.93;102461.00;5053672;28;20084;-84
2021/03/08 11:54:49;;;;;;;27.23;13.15;;;;;;;13.88;36.88;102459.22;5045358;28;20072;-82
2021/03/08 11:57:15;;;;;;;25.73;13.20;;;;;;;13.97;36.39;102458.25;5045942;28;20045;-82
2021/03/08 11:59:42;;;;;;;19.73;11.90;;;;;;;14.13;35.88;102452.78;5046036;28;20033;-84
2021/03/08 12:02:09;;;;;;;20.90;12.95;;;;;;;14.03;35.90;102443.97;5046371;28;20045;-85
2021/03/08 12:04:35;;;;;;;20.15;12.80;;;;;;;14.28;36.61;102446.41;5050672;28;20037;-85
2021/03/08 12:07:01;;;;;;;27.25;15.88;;;;;;;14.27;35.96;102441.97;5028139;28;20148;-85
2021/03/08 12:09:27;;;;;;;24.10;14.00;;;;;;;14.33;36.18;102441.91;5037286;28;20021;-85
2021/03/08 12:11:56;;;;;;;21.52;13.02;;;;;;;14.18;36.34;102440.28;5048998;28;20056;-85
2021/03/08 12:14:22;;;;;;;21.90;13.55;;;;;;;14.27;36.64;102439.31;5059445;28;20017;-85
2021/03/08 12:16:48;;;;;;;22.77;14.60;;;;;;;14.32;36.19;102437.50;5054115;28;20112;-85
2021/03/08 12:19:15;;;;;;;28.10;15.48;;;;;;;14.29;36.51;102440.19;5049612;28;20033;-86
2021/03/08 12:21:41;;;;;;;25.73;15.23;;;;;;;14.22;36.65;102434.91;5047954;28;20076;-85
2021/03/08 12:24:08;;;;;;;24.52;15.35;;;;;;;14.20;36.89;102434.03;5047190;28;20048;-84
2021/03/08 12:26:34;;;;;;;29.75;16.10;;;;;;;14.21;36.80;102435.81;5049698;28;20056;-84
2021/03/08 12:29:00;;;;;;;26.38;15.43;;;;;;;14.22;36.62;102434.91;5051700;28;20048;-83
2021/03/08 12:31:26;;;;;;;26.27;15.18;;;;;;;14.30;36.44;102424.16;5045028;28;20163;-84
2021/03/08 12:33:53;;;;;;;26.33;15.65;;;;;;;14.31;36.36;102433.06;5047095;28;20486;-87
2021/03/08 12:36:19;;;;;;;23.92;15.77;;;;;;;14.34;36.65;102423.25;5045885;28;20163;-86
2021/03/08 12:38:45;;;;;;;25.77;16.25;;;;;;;14.45;36.74;102423.13;5032362;28;20045;-86
2021/03/08 12:41:12;;;;;;;26.45;15.65;;;;;;;14.43;35.90;102419.63;5032129;28;20032;-85